createdAt,value
2019-05-25T00:01:20.790Z,101433.09
2019-05-25T00:03:48.246Z,101433.97
2019-05-25T00:06:15.753Z,101427.81
2019-05-25T00:08:43.268Z,101424.33
2019-05-25T00:11:10.971Z,101423.05
2019-05-25T00:13:38.441Z,101423.08
2019-05-25T00:16:06.021Z,101430.08
2019-05-25T00:18:33.587Z,101425.29
2019-05-25T00:21:01.121Z,101420.95
2019-05-25T00:23:28.592Z,101425.77
2019-05-25T00:25:56.201Z,101432.33
2019-05-25T00:28:23.778Z,101424.45
2019-05-25T00:30:51.333Z,101426.21
2019-05-25T00:33:18.865Z,101429.27
2019-05-25T00:35:46.342Z,101429.70
2019-05-25T00:38:13.914Z,101435.42
2019-05-25T00:40:41.400Z,101426.67
2019-05-25T00:43:08.861Z,101431.07
2019-05-25T00:45:36.874Z,101431.91
2019-05-25T00:48:04.343Z,101430.64
2019-05-25T00:50:31.830Z,101437.20
2019-05-25T00:52:59.329Z,101442.91
2019-05-25T00:55:26.786Z,101439.41
2019-05-25T00:57:54.319Z,101439.81
2019-05-25T01:00:21.758Z,101440.28
2019-05-25T01:02:49.293Z,101446.40
2019-05-25T01:05:16.883Z,101444.66
2019-05-25T01:07:44.378Z,101446.89
2019-05-25T01:10:12.235Z,101440.33
2019-05-25T01:12:39.845Z,101446.01
2019-05-25T01:15:07.320Z,101450.84
2019-05-25T01:17:34.809Z,101448.23
2019-05-25T01:20:02.470Z,101440.84
2019-05-25T01:22:29.946Z,101439.54
2019-05-25T01:24:57.400Z,101438.25
2019-05-25T01:27:24.972Z,101443.06
2019-05-25T01:29:52.457Z,101439.12
2019-05-25T01:32:19.912Z,101441.79
2019-05-25T01:34:47.396Z,101444.00
2019-05-25T01:37:14.879Z,101445.73
2019-05-25T01:39:42.412Z,101451.00
2019-05-25T01:42:09.855Z,101454.52
2019-05-25T01:44:37.331Z,101450.17
2019-05-25T01:47:04.841Z,101451.91
2019-05-25T01:49:32.420Z,101454.54
2019-05-25T01:51:59.878Z,101451.91
2019-05-25T01:54:27.379Z,101454.98
2019-05-25T01:56:54.873Z,101451.91
2019-05-25T01:59:22.468Z,101454.98
2019-05-25T02:01:49.930Z,101451.09
2019-05-25T02:04:17.389Z,101458.50
2019-05-25T02:06:44.886Z,101458.48
2019-05-25T02:09:12.331Z,101455.42
2019-05-25T02:11:39.821Z,101451.50
2019-05-25T02:14:07.306Z,101450.21
2019-05-25T02:16:34.916Z,101451.09
2019-05-25T02:19:02.398Z,101447.59
2019-05-25T02:21:29.935Z,101449.33
2019-05-25T02:23:57.438Z,101451.95
2019-05-25T02:26:24.938Z,101455.89
2019-05-25T02:28:52.444Z,101456.34
2019-05-25T02:31:19.928Z,101451.95
2019-05-25T02:33:47.616Z,101452.42
2019-05-25T02:36:15.080Z,101452.88
2019-05-25T02:38:42.615Z,101452.03
2019-05-25T02:41:10.255Z,101455.96
2019-05-25T02:43:37.812Z,101458.59
2019-05-25T02:46:05.383Z,101458.13
2019-05-25T02:48:33.008Z,101465.15
2019-05-25T02:51:00.485Z,101463.36
2019-05-25T02:53:28.040Z,101462.95
2019-05-25T02:55:55.542Z,101459.48
2019-05-25T02:58:23.013Z,101461.65
2019-05-25T03:00:50.665Z,101464.27
2019-05-25T03:03:18.139Z,101459.05
2019-05-25T03:05:45.853Z,101452.06
2019-05-25T03:08:13.418Z,101449.86
2019-05-25T03:10:40.862Z,101454.69
2019-05-25T03:13:08.390Z,101453.86
2019-05-25T03:15:35.931Z,101452.98
2019-05-25T03:18:03.747Z,101456.08
2019-05-25T03:20:31.470Z,101456.51
2019-05-25T03:22:58.983Z,101464.37
2019-05-25T03:25:26.453Z,101455.21
2019-05-25T03:27:53.976Z,101464.83
2019-05-25T03:30:30.447Z,101465.30
2019-05-25T03:32:58.154Z,101476.25
2019-05-25T03:35:25.673Z,101473.19
2019-05-25T03:37:53.154Z,101466.21
2019-05-25T03:40:20.735Z,101466.23
2019-05-25T03:42:48.178Z,101472.79
2019-05-25T03:45:15.661Z,101476.25
2019-05-25T03:47:43.211Z,101480.65
2019-05-25T03:50:10.681Z,101477.14
2019-05-25T03:52:38.127Z,101476.31
2019-05-25T03:55:05.926Z,101477.16
2019-05-25T03:57:33.453Z,101476.72
2019-05-25T04:00:00.927Z,101474.95
2019-05-25T04:02:28.543Z,101480.66
2019-05-25T04:04:56.257Z,101476.72
2019-05-25T04:07:23.713Z,101481.97
2019-05-25T04:09:51.194Z,101482.42
2019-05-25T04:12:18.716Z,101486.83
2019-05-25T04:14:46.283Z,101496.02
2019-05-25T04:17:13.771Z,101486.83
2019-05-25T04:19:41.404Z,101492.92
2019-05-25T04:22:08.877Z,101493.38
2019-05-25T04:24:36.396Z,101496.84
2019-05-25T04:27:03.962Z,101497.75
2019-05-25T04:29:32.426Z,101498.17
2019-05-25T04:32:00.512Z,101498.66
2019-05-25T04:34:28.109Z,101503.02
2019-05-25T04:36:55.764Z,101504.31
2019-05-25T04:39:23.202Z,101507.84
2019-05-25T04:41:50.626Z,101508.73
2019-05-25T04:44:18.112Z,101509.56
2019-05-25T04:46:45.705Z,101510.88
2019-05-25T04:49:13.213Z,101506.52
2019-05-25T04:51:40.675Z,101507.41
2019-05-25T04:54:08.298Z,101505.21
2019-05-25T04:56:39.540Z,101509.56
2019-05-25T04:59:05.214Z,101504.78
2019-05-25T05:01:32.663Z,101507.82
2019-05-25T05:04:00.335Z,101512.19
2019-05-25T05:06:27.870Z,101507.84
2019-05-25T05:08:55.372Z,101507.84
2019-05-25T05:11:23.034Z,101505.63
2019-05-25T05:13:50.597Z,101508.66
2019-05-25T05:16:18.078Z,101513.47
2019-05-25T05:18:45.658Z,101512.14
2019-05-25T05:21:13.134Z,101517.39
2019-05-25T05:23:40.655Z,101516.92
2019-05-25T05:26:08.158Z,101517.39
2019-05-25T05:28:35.649Z,101519.55
2019-05-25T05:31:03.416Z,101527.00
2019-05-25T05:33:30.934Z,101528.31
2019-05-25T05:35:58.791Z,101528.31
2019-05-25T05:38:26.351Z,101524.38
2019-05-25T05:40:53.796Z,101521.33
2019-05-25T05:43:21.305Z,101522.17
2019-05-25T05:45:48.933Z,101523.95
2019-05-25T05:48:16.408Z,101524.80
2019-05-25T05:50:44.115Z,101524.36
2019-05-25T05:53:11.614Z,101526.11
2019-05-25T05:55:39.068Z,101533.55
2019-05-25T05:58:06.665Z,101536.61
2019-05-25T06:00:34.203Z,101534.45
2019-05-25T06:03:01.668Z,101538.81
2019-05-25T06:05:29.155Z,101544.95
2019-05-25T06:07:56.613Z,101537.94
2019-05-25T06:10:24.197Z,101541.87
2019-05-25T06:12:51.747Z,101536.62
2019-05-25T06:15:19.215Z,101541.02
2019-05-25T06:17:46.702Z,101540.55
2019-05-25T06:20:14.652Z,101544.92
2019-05-25T06:22:42.259Z,101543.15
2019-05-25T06:25:09.912Z,101546.66
2019-05-25T06:27:37.342Z,101544.86
2019-05-25T06:30:04.950Z,101550.56
2019-05-25T06:32:32.395Z,101548.34
2019-05-25T06:34:59.909Z,101550.96
2019-05-25T06:37:27.757Z,101552.69
2019-05-25T06:39:55.201Z,101553.13
2019-05-25T06:42:22.707Z,101561.00
2019-05-25T06:44:50.140Z,101561.41
2019-05-25T06:47:17.932Z,101564.91
2019-05-25T06:49:45.458Z,101557.92
2019-05-25T06:52:13.025Z,101563.98
2019-05-25T06:54:40.506Z,101568.78
2019-05-25T06:57:07.995Z,101566.55
2019-05-25T06:59:35.639Z,101566.53
2019-05-25T07:02:03.164Z,101571.75
2019-05-25T07:04:30.684Z,101572.65
2019-05-25T07:06:58.221Z,101575.20
2019-05-25T07:09:25.700Z,101577.81
2019-05-25T07:11:53.180Z,101576.07
2019-05-25T07:14:20.662Z,101578.22
2019-05-25T07:16:48.191Z,101582.16
2019-05-25T07:19:15.677Z,101580.83
2019-05-25T07:21:43.255Z,101577.77
2019-05-25T07:24:10.788Z,101579.91
2019-05-25T07:26:38.319Z,101580.33
2019-05-25T07:29:05.840Z,101576.38
2019-05-25T07:31:33.380Z,101576.35
2019-05-25T07:34:00.900Z,101575.02
2019-05-25T07:36:28.384Z,101579.36
2019-05-25T07:38:55.885Z,101578.02
2019-05-25T07:41:23.489Z,101577.59
2019-05-25T07:43:50.911Z,101583.70
2019-05-25T07:46:18.420Z,101586.73
2019-05-25T07:48:45.911Z,101594.16
2019-05-25T07:51:13.400Z,101599.83
2019-05-25T07:53:40.983Z,101596.30
2019-05-25T07:56:08.457Z,101604.56
2019-05-25T07:58:35.963Z,101605.43
2019-05-25T08:01:03.546Z,101607.59
2019-05-25T08:03:31.055Z,101606.33
2019-05-25T08:05:58.516Z,101608.49
2019-05-25T08:08:25.994Z,101606.75
2019-05-25T08:10:53.466Z,101615.47
2019-05-25T08:13:21.081Z,101613.74
2019-05-25T08:15:48.537Z,101622.92
2019-05-25T08:18:16.021Z,101620.30
2019-05-25T08:20:46.619Z,101622.02
2019-05-25T08:23:12.883Z,101619.38
2019-05-25T08:25:40.379Z,101617.56
2019-05-25T08:28:07.921Z,101622.78
2019-05-25T08:30:35.414Z,101628.92
2019-05-25T08:33:02.997Z,101629.75
2019-05-25T08:35:30.522Z,101629.24
2019-05-25T08:37:58.159Z,101643.25
2019-05-25T08:40:25.630Z,101641.45
2019-05-25T08:42:53.149Z,101628.76
2019-05-25T08:45:20.626Z,101640.11
2019-05-25T08:47:48.166Z,101642.33
2019-05-25T08:50:15.604Z,101644.08
2019-05-25T08:52:43.074Z,101652.88
2019-05-25T08:55:10.611Z,101644.58
2019-05-25T08:57:38.081Z,101649.83
2019-05-25T09:00:05.697Z,101654.19
2019-05-25T09:02:33.381Z,101654.64
2019-05-25T09:05:00.851Z,101657.27
2019-05-25T09:07:28.308Z,101666.46
2019-05-25T09:09:55.925Z,101659.42
2019-05-25T09:12:23.596Z,101662.94
2019-05-25T09:14:51.037Z,101662.05
2019-05-25T09:17:18.560Z,101674.30
2019-05-25T09:19:46.018Z,101662.03
2019-05-25T09:22:13.519Z,101664.18
2019-05-25T09:24:41.072Z,101668.10
2019-05-25T09:27:08.577Z,101668.09
2019-05-25T09:29:36.077Z,101668.55
2019-05-25T09:32:06.882Z,101672.05
2019-05-25T09:34:33.132Z,101667.19
2019-05-25T09:37:00.623Z,101675.94
2019-05-25T09:39:28.149Z,101673.72
2019-05-25T09:41:55.640Z,101674.59
2019-05-25T09:44:23.166Z,101673.22
2019-05-25T09:46:50.772Z,101675.41
2019-05-25T09:49:18.323Z,101680.23
2019-05-25T09:51:48.476Z,101680.26
2019-05-25T09:54:15.141Z,101683.30
2019-05-25T09:56:42.628Z,101682.48
2019-05-25T09:59:19.775Z,101681.61
2019-05-25T10:01:39.589Z,101690.39
2019-05-25T10:04:07.076Z,101687.77
2019-05-25T10:06:34.573Z,101685.13
2019-05-25T10:09:02.049Z,101685.98
2019-05-25T10:11:29.564Z,101682.48
2019-05-25T10:13:57.073Z,101679.39
2019-05-25T10:16:24.691Z,101686.41
2019-05-25T10:18:52.522Z,101684.22
2019-05-25T10:21:19.993Z,101682.04
2019-05-25T10:23:47.529Z,101687.77
2019-05-25T10:26:15.001Z,101688.21
2019-05-25T10:28:42.507Z,101678.16
2019-05-25T10:31:10.152Z,101685.16
2019-05-25T10:33:37.616Z,101679.00
2019-05-25T10:36:05.119Z,101680.78
2019-05-25T10:38:32.573Z,101681.63
2019-05-25T10:41:00.079Z,101680.30
2019-05-25T10:43:27.671Z,101675.00
2019-05-25T10:45:55.173Z,101677.14
2019-05-25T10:48:22.658Z,101670.97
2019-05-25T10:50:50.477Z,101670.05
2019-05-25T10:53:18.070Z,101674.85
2019-05-25T10:55:45.546Z,101669.11
2019-05-25T10:58:13.063Z,101670.38
2019-05-25T11:00:40.587Z,101673.84
2019-05-25T11:03:08.060Z,101674.70
2019-05-25T11:05:35.621Z,101672.92
2019-05-25T11:08:03.155Z,101678.58
2019-05-25T11:10:30.630Z,101676.00
2019-05-25T11:12:58.093Z,101674.63
2019-05-25T11:15:25.608Z,101675.02
2019-05-25T11:17:53.072Z,101671.96
2019-05-25T11:20:20.547Z,101678.52
2019-05-25T11:22:48.016Z,101682.44
2019-05-25T11:25:15.513Z,101676.30
2019-05-25T11:27:43.055Z,101685.48
2019-05-25T11:30:10.636Z,101679.30
2019-05-25T11:32:38.360Z,101675.36
2019-05-25T11:35:06.337Z,101684.52
2019-05-25T11:37:33.791Z,101687.55
2019-05-25T11:40:01.422Z,101686.23
2019-05-25T11:42:28.909Z,101687.55
2019-05-25T11:44:56.376Z,101688.38
2019-05-25T11:47:23.975Z,101682.67
2019-05-25T11:49:51.412Z,101685.31
2019-05-25T11:52:18.882Z,101690.08
2019-05-25T11:54:46.386Z,101690.45
2019-05-25T11:57:13.873Z,101692.62
2019-05-25T11:59:41.346Z,101696.11
2019-05-25T12:02:08.841Z,101688.22
2019-05-25T12:04:36.340Z,101686.03
2019-05-25T12:07:03.783Z,101687.34
2019-05-25T12:09:31.356Z,101681.19
2019-05-25T12:11:58.883Z,101684.23
2019-05-25T12:14:26.323Z,101678.98
2019-05-25T12:16:53.842Z,101678.98
2019-05-25T12:19:21.366Z,101676.80
2019-05-25T12:21:48.826Z,101690.80
2019-05-25T12:24:16.318Z,101689.48
2019-05-25T12:26:43.771Z,101690.83
2019-05-25T12:29:11.311Z,101688.20
2019-05-25T12:31:38.768Z,101700.91
2019-05-25T12:34:06.365Z,101688.66
2019-05-25T12:36:33.840Z,101690.41
2019-05-25T12:39:01.308Z,101695.23
2019-05-25T12:41:28.983Z,101693.45
2019-05-25T12:43:56.478Z,101685.13
2019-05-25T12:46:23.953Z,101688.17
2019-05-25T12:48:51.435Z,101685.55
2019-05-25T12:51:19.025Z,101692.98
2019-05-25T12:53:46.480Z,101693.83
2019-05-25T12:56:13.985Z,101688.95
2019-05-25T12:58:41.466Z,101687.59
2019-05-25T13:01:08.983Z,101698.13
2019-05-25T13:03:36.479Z,101700.38
2019-05-25T13:06:03.999Z,101693.84
2019-05-25T13:08:32.029Z,101699.11
2019-05-25T13:10:59.511Z,101703.02
2019-05-25T13:13:27.043Z,101710.91
2019-05-25T13:15:54.600Z,101707.05
2019-05-25T13:18:22.110Z,101711.44
2019-05-25T13:20:49.643Z,101710.58
2019-05-25T13:23:17.264Z,101721.15
2019-05-25T13:25:44.803Z,101717.64
2019-05-25T13:28:12.288Z,101722.03
2019-05-25T13:30:39.938Z,101723.80
2019-05-25T13:33:07.437Z,101728.18
2019-05-25T13:35:34.925Z,101731.24
2019-05-25T13:38:02.582Z,101735.17
2019-05-25T13:40:30.067Z,101735.17
2019-05-25T13:42:57.716Z,101734.75
2019-05-25T13:45:25.223Z,101740.90
2019-05-25T13:47:52.718Z,101736.50
2019-05-25T13:50:20.389Z,101736.09
2019-05-25T13:52:47.874Z,101730.83
2019-05-25T13:55:15.359Z,101734.77
2019-05-25T13:57:42.913Z,101734.77
2019-05-25T14:00:10.663Z,101734.77
2019-05-25T14:02:38.210Z,101735.19
2019-05-25T14:05:05.775Z,101735.64
2019-05-25T14:07:33.251Z,101736.50
2019-05-25T14:10:00.768Z,101737.41
2019-05-25T14:12:28.262Z,101738.30
2019-05-25T14:14:55.779Z,101739.59
2019-05-25T14:17:23.318Z,101741.84
2019-05-25T14:19:50.983Z,101736.58
2019-05-25T14:22:18.468Z,101734.84
2019-05-25T14:24:46.067Z,101735.72
2019-05-25T14:27:13.636Z,101731.77
2019-05-25T14:29:41.187Z,101733.98
2019-05-25T14:32:08.680Z,101743.19
2019-05-25T14:34:37.029Z,101742.78
2019-05-25T14:37:04.668Z,101737.12
2019-05-25T14:39:32.153Z,101739.75
2019-05-25T14:41:59.845Z,101731.00
2019-05-25T14:44:27.348Z,101729.70
2019-05-25T14:46:54.842Z,101724.52
2019-05-25T14:49:22.484Z,101727.97
2019-05-25T14:51:50.155Z,101731.91
2019-05-25T14:54:17.631Z,101733.23
2019-05-25T14:56:45.187Z,101732.38
2019-05-25T14:59:12.808Z,101733.70
2019-05-25T15:01:40.335Z,101727.56
2019-05-25T15:04:07.839Z,101725.83
2019-05-25T15:06:35.412Z,101722.34
2019-05-25T15:09:03.704Z,101723.66
2019-05-25T15:11:31.203Z,101724.97
2019-05-25T15:13:58.664Z,101717.52
2019-05-25T15:16:26.155Z,101718.31
2019-05-25T15:18:53.683Z,101708.94
2019-05-25T15:21:21.428Z,101703.52
2019-05-25T15:23:48.943Z,101699.45
2019-05-25T15:26:16.482Z,101701.16
2019-05-25T15:28:43.971Z,101700.75
2019-05-25T15:31:11.490Z,101693.77
2019-05-25T15:33:38.970Z,101699.85
2019-05-25T15:36:06.475Z,101704.19
2019-05-25T15:38:34.101Z,101696.64
2019-05-25T15:41:01.590Z,101695.70
2019-05-25T15:43:29.102Z,101702.20
2019-05-25T15:45:56.619Z,101697.33
2019-05-25T15:48:26.211Z,101705.15
2019-05-25T15:50:53.504Z,101707.37
2019-05-25T15:53:20.986Z,101700.79
2019-05-25T15:55:48.520Z,101699.42
2019-05-25T15:58:15.971Z,101702.45
2019-05-25T16:00:48.016Z,101702.45
2019-05-25T16:03:16.449Z,101714.31
2019-05-25T16:05:47.377Z,101713.92
2019-05-25T16:08:13.441Z,101709.56
2019-05-25T16:10:40.964Z,101713.56
2019-05-25T16:13:08.503Z,101711.83
2019-05-25T16:15:36.044Z,101709.12
2019-05-25T16:18:03.546Z,101702.45
2019-05-25T16:20:31.024Z,101705.88
2019-05-25T16:22:58.533Z,101704.14
2019-05-25T16:25:26.127Z,101705.84
2019-05-25T16:27:53.701Z,101701.90
2019-05-25T16:30:21.182Z,101706.72
2019-05-25T16:35:18.137Z,101707.61
2019-05-25T16:37:07.704Z,101699.30
2019-05-25T16:37:46.022Z,101701.92
2019-05-25T16:40:13.989Z,101692.19
2019-05-25T16:42:41.503Z,101692.12
2019-05-25T16:45:09.306Z,101682.44
2019-05-25T16:47:36.779Z,101684.68
2019-05-25T16:50:04.774Z,101684.63
2019-05-25T16:52:32.257Z,101682.39
2019-05-25T16:54:59.798Z,101678.05
2019-05-25T16:57:27.410Z,101685.58
2019-05-25T16:59:55.033Z,101686.15
2019-05-25T17:02:22.530Z,101698.11
2019-05-25T17:04:50.545Z,101699.52
2019-05-25T17:07:18.036Z,101703.59
2019-05-25T17:09:45.853Z,101701.47
2019-05-25T17:12:13.362Z,101698.91
2019-05-25T17:14:41.206Z,101699.44
2019-05-25T17:17:09.046Z,101698.16
2019-05-25T17:19:36.864Z,101695.63
2019-05-25T17:22:04.389Z,101696.58
2019-05-25T17:24:31.893Z,101700.12
2019-05-25T17:26:59.446Z,101690.55
2019-05-25T17:29:26.949Z,101693.66
2019-05-25T17:31:54.868Z,101693.31
2019-05-25T17:34:22.372Z,101675.49
2019-05-25T17:36:49.874Z,101685.48
2019-05-25T17:39:17.422Z,101684.23
2019-05-25T17:41:44.989Z,101680.75
2019-05-25T17:44:12.501Z,101679.50
2019-05-25T17:46:40.025Z,101680.83
2019-05-25T17:49:07.562Z,101679.59
2019-05-25T17:51:35.055Z,101687.06
2019-05-25T17:54:02.591Z,101680.94
2019-05-25T17:56:30.130Z,101680.55
2019-05-25T17:58:57.616Z,101679.70
2019-05-25T18:01:25.110Z,101690.66
2019-05-25T18:04:05.765Z,101686.76
2019-05-25T18:06:22.286Z,101687.27
2019-05-25T18:08:50.016Z,101685.55
2019-05-25T18:11:17.672Z,101689.53
2019-05-25T18:13:45.192Z,101694.37
2019-05-25T18:16:12.715Z,101693.97
2019-05-25T18:18:40.209Z,101692.27
2019-05-25T18:21:07.754Z,101694.48
2019-05-25T18:23:35.257Z,101690.14
2019-05-25T18:26:02.813Z,101692.80
2019-05-25T18:28:30.302Z,101685.84
2019-05-25T18:30:57.805Z,101695.95
2019-05-25T18:33:25.316Z,101692.48
2019-05-25T18:35:52.834Z,101686.80
2019-05-25T18:38:20.420Z,101688.61
2019-05-25T18:40:47.975Z,101691.72
2019-05-25T18:43:19.257Z,101691.27
2019-05-25T18:45:46.770Z,101697.90
2019-05-25T18:48:14.279Z,101691.34
2019-05-25T18:50:42.170Z,101691.37
2019-05-25T18:53:09.731Z,101694.91
2019-05-25T18:55:37.272Z,101694.50
2019-05-25T18:58:04.895Z,101692.78
2019-05-25T19:00:32.444Z,101694.53
2019-05-25T19:02:59.984Z,101693.70
2019-05-25T19:05:27.506Z,101689.35
2019-05-25T19:07:54.990Z,101690.68
2019-05-25T19:10:22.507Z,101683.70
2019-05-25T19:12:49.993Z,101676.27
2019-05-25T19:15:17.552Z,101675.85
2019-05-25T19:17:45.083Z,101672.36
2019-05-25T19:20:12.661Z,101676.34
2019-05-25T19:22:40.380Z,101681.61
2019-05-25T19:25:07.972Z,101674.64
2019-05-25T19:27:35.634Z,101677.28
2019-05-25T19:30:08.518Z,101681.23
2019-05-25T19:32:36.261Z,101679.95
2019-05-25T19:35:03.954Z,101677.78
2019-05-25T19:37:31.604Z,101677.77
2019-05-25T19:39:59.185Z,101676.88
2019-05-25T19:42:26.658Z,101677.36
2019-05-25T19:44:54.177Z,101684.83
2019-05-25T19:47:21.812Z,101685.73
2019-05-25T19:49:49.339Z,101679.17
2019-05-25T19:52:16.849Z,101683.12
2019-05-25T19:54:44.390Z,101685.77
2019-05-25T19:57:11.890Z,101677.47
2019-05-25T19:59:39.705Z,101680.95
2019-05-25T20:02:07.222Z,101683.16
2019-05-25T20:04:34.748Z,101680.54
2019-05-25T20:07:02.257Z,101678.80
2019-05-25T20:09:29.779Z,101676.63
2019-05-25T20:11:57.459Z,101678.84
2019-05-25T20:14:24.986Z,101684.56
2019-05-25T20:16:52.566Z,101681.48
2019-05-25T20:19:20.052Z,101680.22
2019-05-25T20:21:47.840Z,101674.52
2019-05-25T20:24:15.423Z,101672.80
2019-05-25T20:26:42.955Z,101668.86
2019-05-25T20:29:10.454Z,101669.75
2019-05-25T20:31:38.110Z,101667.61
2019-05-25T20:34:05.625Z,101665.42
2019-05-25T20:36:33.236Z,101665.42
2019-05-25T20:39:00.780Z,101665.00
2019-05-25T20:41:28.426Z,101662.82
2019-05-25T20:43:55.955Z,101662.41
2019-05-25T20:46:23.459Z,101668.55
2019-05-25T20:48:50.998Z,101667.70
2019-05-25T20:51:18.614Z,101662.48
2019-05-25T20:53:46.799Z,101658.13
2019-05-25T20:56:14.665Z,101654.20
2019-05-25T20:58:47.745Z,101666.02
2019-05-25T21:01:15.239Z,101667.77
2019-05-25T21:03:42.774Z,101667.34
2019-05-25T21:06:10.246Z,101666.05
2019-05-25T21:08:37.769Z,101666.51
2019-05-25T21:11:05.382Z,101663.89
2019-05-25T21:13:32.853Z,101668.27
2019-05-25T21:16:00.372Z,101668.28
2019-05-25T21:18:27.972Z,101660.00
2019-05-25T21:20:55.481Z,101667.45
2019-05-25T21:23:22.993Z,101664.84
2019-05-25T21:25:50.488Z,101660.05
2019-05-25T21:28:17.987Z,101659.17
2019-05-25T21:30:47.932Z,101658.77
2019-05-25T21:33:15.437Z,101653.09
2019-05-25T21:35:42.976Z,101654.84
2019-05-25T21:38:10.528Z,101654.42
2019-05-25T21:40:37.970Z,101643.94
2019-05-25T21:43:05.572Z,101650.08
2019-05-25T21:45:33.072Z,101645.72
2019-05-25T21:48:00.538Z,101646.16
2019-05-25T21:50:28.040Z,101645.27
2019-05-25T21:52:55.548Z,101645.74
2019-05-25T21:55:23.051Z,101648.80
2019-05-25T21:57:50.514Z,101647.06
2019-05-25T22:00:21.057Z,101643.56
2019-05-25T22:02:48.812Z,101639.67
2019-05-25T22:05:16.283Z,101639.67
2019-05-25T22:07:43.843Z,101644.05
2019-05-25T22:10:11.401Z,101642.31
2019-05-25T22:12:40.468Z,101643.20
2019-05-25T22:15:09.792Z,101633.63
2019-05-25T22:17:37.773Z,101637.56
2019-05-25T22:20:05.294Z,101633.21
2019-05-25T22:22:32.743Z,101628.88
2019-05-25T22:25:00.254Z,101627.96
2019-05-25T22:27:27.830Z,101624.03
2019-05-25T22:29:55.459Z,101620.57
2019-05-25T22:32:22.949Z,101616.64
2019-05-25T22:34:50.534Z,101612.72
2019-05-25T22:37:18.048Z,101607.91
2019-05-25T22:39:45.521Z,101602.72
2019-05-25T22:42:12.994Z,101597.48
2019-05-25T22:44:40.584Z,101592.24
2019-05-25T22:47:08.131Z,101589.64
2019-05-25T22:49:35.663Z,101593.14
2019-05-25T22:52:03.357Z,101585.72
2019-05-25T22:54:30.847Z,101581.38
2019-05-25T22:56:58.450Z,101584.00
2019-05-25T22:59:26.056Z,101585.73
2019-05-25T23:01:53.547Z,101580.50
2019-05-25T23:04:21.019Z,101571.80
2019-05-25T23:06:57.974Z,101566.14
2019-05-25T23:09:18.050Z,101573.58
2019-05-25T23:11:45.512Z,101570.95
2019-05-25T23:14:13.005Z,101568.77
2019-05-25T23:16:40.584Z,101564.84
2019-05-25T23:19:08.183Z,101561.34
2019-05-25T23:21:35.647Z,101555.67
2019-05-25T23:24:03.105Z,101561.80
2019-05-25T23:26:30.611Z,101556.58
2019-05-25T23:28:58.145Z,101546.58
2019-05-25T23:31:25.647Z,101549.19
2019-05-25T23:33:53.106Z,101552.67
2019-05-25T23:36:20.718Z,101547.47
2019-05-25T23:38:48.175Z,101543.08
2019-05-25T23:41:15.680Z,101540.94
2019-05-25T23:43:43.169Z,101536.11
2019-05-25T23:46:10.638Z,101535.27
2019-05-25T23:48:38.186Z,101532.66
2019-05-25T23:51:05.769Z,101526.96
2019-05-25T23:53:33.262Z,101522.60
2019-05-25T23:56:00.723Z,101515.66
2019-05-25T23:58:28.318Z,101517.39
